Time;durP1;ratioP1;P1;durP2;ratioP2;P2;SDS_P1;SDS_P2;PMS_P1;PMS_P2;Temp;Humidity;BMP_temperature;BMP_pressure;BME280_temperature;BME280_humidity;BME280_pressure;Samples;Min_cycle;Max_cycle;Signal;HPM_P1;HPM_P2
2023/03/16 00:02:02;;;;;;;5.53;0.50;;;;;;;;;;5096802;28;20475;-55
2023/03/16 00:04:29;;;;;;;5.43;0.50;;;;;;;;;;5097643;28;20023;-49
2023/03/16 00:06:55;;;;;;;3.23;0.60;;;;;;;;;;5093570;28;20024;-48
2023/03/16 00:09:20;;;;;;;2.43;0.60;;;;;;;;;;5094456;28;20529;-49
2023/03/16 00:11:46;;;;;;;2.80;0.60;;;;;;;;;;5093991;28;20096;-48
2023/03/16 00:14:11;;;;;;;0.93;0.33;;;;;;;;;;5093075;28;20016;-48
2023/03/16 00:16:37;;;;;;;1.80;0.40;;;;;;;;;;5094261;28;20016;-49
2023/03/16 00:19:04;;;;;;;3.13;1.13;;;;;;;;;;5092485;28;20024;-48
2023/03/16 00:21:30;;;;;;;2.27;0.40;;;;;;;;;;5092657;28;20012;-51
2023/03/16 00:23:57;;;;;;;6.27;0.53;;;;;;;;;;5092898;28;20101;-48
2023/03/16 00:26:22;;;;;;;2.67;0.50;;;;;;;;;;5094292;28;20028;-48
2023/03/16 00:28:48;;;;;;;1.73;0.50;;;;;;;;;;5093827;28;20019;-48
2023/03/16 00:31:13;;;;;;;6.03;0.90;;;;;;;;;;5094094;28;20016;-48
2023/03/16 00:33:41;;;;;;;1.90;0.50;;;;;;;;;;5093933;28;20017;-49
2023/03/16 00:36:10;;;;;;;1.90;0.67;;;;;;;;;;5093641;28;20034;-49
2023/03/16 00:38:36;;;;;;;1.03;0.40;;;;;;;;;;5092394;28;20093;-48
2023/03/16 00:41:03;;;;;;;3.50;0.30;;;;;;;;;;5093864;28;20027;-49
2023/03/16 00:43:29;;;;;;;1.13;0.30;;;;;;;;;;5093775;28;20028;-49
2023/03/16 00:46:00;;;;;;;8.60;0.57;;;;;;;;;;5092366;28;20016;-54
2023/03/16 00:48:25;;;;;;;5.70;0.47;;;;;;;;;;5092177;28;20020;-48
2023/03/16 00:50:53;;;;;;;5.37;0.50;;;;;;;;;;5092630;28;20026;-48
2023/03/16 00:53:18;;;;;;;3.50;0.60;;;;;;;;;;5093763;28;20022;-48
2023/03/16 00:55:44;;;;;;;2.67;0.40;;;;;;;;;;5093892;28;20103;-48
2023/03/16 00:58:13;;;;;;;3.10;0.33;;;;;;;;;;5092475;28;20127;-49
2023/03/16 01:00:39;;;;;;;4.53;0.40;;;;;;;;;;5093649;28;20023;-50
2023/03/16 01:03:05;;;;;;;4.83;0.87;;;;;;;;;;5093384;28;20016;-48
2023/03/16 01:05:32;;;;;;;3.07;0.67;;;;;;;;;;5093429;28;20034;-48
2023/03/16 01:07:58;;;;;;;3.87;0.60;;;;;;;;;;5093494;28;20032;-49
2023/03/16 01:10:24;;;;;;;2.83;0.20;;;;;;;;;;5093348;28;20035;-58
2023/03/16 01:12:54;;;;;;;4.00;0.50;;;;;;;;;;5091771;28;20020;-48
2023/03/16 01:15:20;;;;;;;3.50;0.60;;;;;;;;;;5093135;28;20034;-48
2023/03/16 01:17:46;;;;;;;4.10;0.60;;;;;;;;;;5093099;28;20114;-48
2023/03/16 01:20:14;;;;;;;1.50;0.30;;;;;;;;;;5093586;28;20022;-48
2023/03/16 01:22:41;;;;;;;2.40;0.33;;;;;;;;;;5093439;28;20480;-47
2023/03/16 01:25:06;;;;;;;0.93;0.27;;;;;;;;;;5092066;28;20019;-52
2023/03/16 01:27:32;;;;;;;1.70;0.40;;;;;;;;;;5097926;28;20461;-48
2023/03/16 01:29:57;;;;;;;0.70;0.20;;;;;;;;;;5097950;28;20031;-48
2023/03/16 01:32:23;;;;;;;1.53;0.40;;;;;;;;;;5097593;28;20016;-50
2023/03/16 01:34:50;;;;;;;4.57;0.50;;;;;;;;;;5097587;28;20020;-48
2023/03/16 01:37:16;;;;;;;3.40;0.53;;;;;;;;;;5096414;28;20058;-48
2023/03/16 01:39:41;;;;;;;1.23;0.30;;;;;;;;;;5098416;28;20052;-47
2023/03/16 01:42:07;;;;;;;0.90;0.20;;;;;;;;;;5096734;28;20058;-48
2023/03/16 01:44:49;;;;;;;5.90;1.07;;;;;;;;;;5096330;28;20526;-49
2023/03/16 01:47:15;;;;;;;3.97;1.07;;;;;;;;;;5099250;28;20058;-49
2023/03/16 01:49:41;;;;;;;3.50;0.40;;;;;;;;;;5098930;28;20012;-49
2023/03/16 01:52:11;;;;;;;0.80;0.30;;;;;;;;;;5099007;28;20024;-47
2023/03/16 01:54:41;;;;;;;1.63;0.40;;;;;;;;;;5099362;28;20236;-48
2023/03/16 01:57:12;;;;;;;5.80;0.47;;;;;;;;;;5080063;28;20063;-55
2023/03/16 01:59:41;;;;;;;4.57;0.50;;;;;;;;;;5098666;28;20024;-48
2023/03/16 02:02:08;;;;;;;1.47;0.40;;;;;;;;;;5097570;28;20059;-47
2023/03/16 02:04:52;;;;;;;1.90;0.43;;;;;;;;;;5097344;28;20102;-48
2023/03/16 02:07:19;;;;;;;0.83;0.40;;;;;;;;;;5095481;28;20027;-48
2023/03/16 02:09:46;;;;;;;2.37;0.37;;;;;;;;;;5095285;28;20012;-51
2023/03/16 02:12:17;;;;;;;2.27;0.40;;;;;;;;;;5096922;28;20019;-49
2023/03/16 02:14:43;;;;;;;1.57;0.30;;;;;;;;;;5095822;28;20081;-48
2023/03/16 02:17:09;;;;;;;1.90;0.40;;;;;;;;;;5096487;28;20024;-50
2023/03/16 02:19:43;;;;;;;1.63;0.30;;;;;;;;;;5097341;28;20016;-48
2023/03/16 02:22:09;;;;;;;1.10;0.30;;;;;;;;;;5095788;28;20024;-48
2023/03/16 02:24:37;;;;;;;2.00;0.33;;;;;;;;;;5096045;28;20081;-48
2023/03/16 02:27:05;;;;;;;0.87;0.20;;;;;;;;;;5095750;28;20034;-49
2023/03/16 02:29:49;;;;;;;2.40;0.30;;;;;;;;;;5097269;28;20054;-55
2023/03/16 02:32:16;;;;;;;1.33;0.50;;;;;;;;;;5095422;28;20024;-48
2023/03/16 02:34:41;;;;;;;3.53;0.57;;;;;;;;;;5096137;28;20406;-48
2023/03/16 02:37:07;;;;;;;3.07;0.47;;;;;;;;;;5094502;28;20020;-49
2023/03/16 02:39:34;;;;;;;4.77;1.03;;;;;;;;;;5094644;28;20028;-50
2023/03/16 02:42:00;;;;;;;1.40;0.40;;;;;;;;;;5095914;28;20047;-49
2023/03/16 02:44:36;;;;;;;2.33;0.63;;;;;;;;;;5095408;28;20020;-48
2023/03/16 02:47:04;;;;;;;1.47;0.57;;;;;;;;;;5097568;28;20464;-48
2023/03/16 02:49:30;;;;;;;1.47;0.40;;;;;;;;;;5097527;28;20024;-49
2023/03/16 02:51:56;;;;;;;2.53;0.30;;;;;;;;;;5095709;28;20057;-49
2023/03/16 02:54:21;;;;;;;3.77;0.37;;;;;;;;;;5096360;28;20028;-48
2023/03/16 02:56:47;;;;;;;5.53;1.07;;;;;;;;;;5096104;28;20184;-47
2023/03/16 02:59:12;;;;;;;11.47;1.00;;;;;;;;;;5095361;28;20086;-48
2023/03/16 03:01:38;;;;;;;7.40;0.60;;;;;;;;;;5096733;28;20020;-48
2023/03/16 03:04:04;;;;;;;5.57;1.07;;;;;;;;;;5095935;28;20026;-48
2023/03/16 03:06:31;;;;;;;7.37;0.50;;;;;;;;;;5096931;28;20047;-49
2023/03/16 03:08:57;;;;;;;2.87;1.40;;;;;;;;;;5095894;28;20103;-52
2023/03/16 03:11:22;;;;;;;3.27;0.40;;;;;;;;;;5094125;28;20055;-48
2023/03/16 03:13:48;;;;;;;1.80;0.23;;;;;;;;;;5095983;28;20016;-50
2023/03/16 03:16:13;;;;;;;1.93;0.47;;;;;;;;;;5096061;28;20016;-48
2023/03/16 03:18:39;;;;;;;4.07;0.60;;;;;;;;;;5094516;28;20032;-47
2023/03/16 03:21:05;;;;;;;2.27;0.27;;;;;;;;;;5098257;28;20031;-52
2023/03/16 03:23:31;;;;;;;0.70;0.10;;;;;;;;;;5099364;28;20021;-55
2023/03/16 03:25:57;;;;;;;3.13;0.97;;;;;;;;;;5096334;28;20028;-47
2023/03/16 03:28:23;;;;;;;1.40;0.70;;;;;;;;;;5094373;28;20018;-54
2023/03/16 03:30:48;;;;;;;1.37;0.37;;;;;;;;;;5094941;28;20020;-53
2023/03/16 03:33:14;;;;;;;3.43;0.40;;;;;;;;;;5094695;28;20020;-48
2023/03/16 03:35:40;;;;;;;2.90;0.30;;;;;;;;;;5095059;28;20523;-53
2023/03/16 03:38:07;;;;;;;1.50;0.37;;;;;;;;;;5095042;28;20481;-49
2023/03/16 03:40:32;;;;;;;1.03;0.30;;;;;;;;;;5093724;28;20016;-49
2023/03/16 03:42:58;;;;;;;0.83;0.30;;;;;;;;;;5094491;28;20028;-69
2023/03/16 03:45:23;;;;;;;2.20;0.27;;;;;;;;;;5098192;28;20012;-52
2023/03/16 03:47:49;;;;;;;3.23;0.50;;;;;;;;;;5097678;28;20050;-48
2023/03/16 03:50:14;;;;;;;2.13;0.20;;;;;;;;;;5094783;28;20022;-49
2023/03/16 03:52:40;;;;;;;2.60;0.50;;;;;;;;;;5096415;28;20142;-50
2023/03/16 03:55:05;;;;;;;2.93;0.40;;;;;;;;;;5096041;28;20084;-49
2023/03/16 03:57:31;;;;;;;1.17;0.20;;;;;;;;;;5096191;28;20055;-49
2023/03/16 03:59:56;;;;;;;1.03;0.40;;;;;;;;;;5096125;28;20023;-49
2023/03/16 04:02:22;;;;;;;2.33;0.40;;;;;;;;;;5096026;28;20022;-48
2023/03/16 04:04:47;;;;;;;2.63;0.50;;;;;;;;;;5095543;28;20115;-48
2023/03/16 04:07:13;;;;;;;3.13;0.63;;;;;;;;;;5095681;28;20099;-48
2023/03/16 04:09:38;;;;;;;2.13;0.90;;;;;;;;;;5094825;28;20120;-48
2023/03/16 04:12:04;;;;;;;1.17;0.50;;;;;;;;;;5096348;28;20449;-53
2023/03/16 04:14:30;;;;;;;1.07;0.20;;;;;;;;;;5096133;28;20020;-48
2023/03/16 04:16:56;;;;;;;1.20;0.30;;;;;;;;;;5093961;28;20030;-52
2023/03/16 04:19:22;;;;;;;0.87;0.27;;;;;;;;;;5094604;28;20028;-49
2023/03/16 04:21:48;;;;;;;2.67;0.40;;;;;;;;;;5094107;28;20026;-48
2023/03/16 04:24:14;;;;;;;1.33;0.50;;;;;;;;;;5094301;28;20465;-48
2023/03/16 04:26:40;;;;;;;2.53;0.67;;;;;;;;;;5095735;28;20047;-48
2023/03/16 04:29:05;;;;;;;1.60;0.10;;;;;;;;;;5077574;28;20020;-49
2023/03/16 04:31:32;;;;;;;1.10;0.23;;;;;;;;;;5095193;28;20020;-48
2023/03/16 04:33:57;;;;;;;1.30;0.40;;;;;;;;;;5095958;28;20085;-48
2023/03/16 04:36:23;;;;;;;1.17;0.57;;;;;;;;;;5094082;28;20028;-49
2023/03/16 04:38:49;;;;;;;3.77;0.60;;;;;;;;;;5093281;28;20077;-50
2023/03/16 04:41:15;;;;;;;3.20;0.30;;;;;;;;;;5097037;28;20018;-48
2023/03/16 04:43:41;;;;;;;2.20;0.50;;;;;;;;;;5097577;28;20489;-48
2023/03/16 04:46:08;;;;;;;3.00;0.60;;;;;;;;;;5093639;28;20055;-49
2023/03/16 04:48:34;;;;;;;4.43;0.70;;;;;;;;;;5094258;28;20464;-48
2023/03/16 04:51:00;;;;;;;3.47;0.70;;;;;;;;;;5094694;28;20031;-50
2023/03/16 04:53:26;;;;;;;3.87;0.90;;;;;;;;;;5095537;28;20497;-53
2023/03/16 04:55:51;;;;;;;1.97;0.50;;;;;;;;;;5095718;28;20094;-48
2023/03/16 04:58:17;;;;;;;2.80;0.60;;;;;;;;;;5093863;28;20032;-54
2023/03/16 05:00:42;;;;;;;6.03;0.60;;;;;;;;;;5094503;28;20023;-48
2023/03/16 05:03:11;;;;;;;6.07;0.50;;;;;;;;;;5096198;28;20077;-54
2023/03/16 05:05:37;;;;;;;4.20;0.63;;;;;;;;;;5094912;28;20044;-48
2023/03/16 05:08:05;;;;;;;9.10;0.90;;;;;;;;;;5094928;28;20026;-52
2023/03/16 05:10:31;;;;;;;4.77;0.80;;;;;;;;;;5094081;28;20016;-51
2023/03/16 05:12:56;;;;;;;7.47;0.90;;;;;;;;;;5094503;28;20013;-57
2023/03/16 05:15:22;;;;;;;4.10;0.57;;;;;;;;;;5094732;28;20028;-57
2023/03/16 05:17:47;;;;;;;8.13;0.80;;;;;;;;;;5092616;28;20213;-50
2023/03/16 05:20:13;;;;;;;3.17;0.83;;;;;;;;;;5093597;28;20114;-63
2023/03/16 05:22:41;;;;;;;9.30;1.00;;;;;;;;;;5095463;28;20109;-48
2023/03/16 05:25:06;;;;;;;7.00;0.70;;;;;;;;;;5094604;28;20059;-48
2023/03/16 05:27:33;;;;;;;5.83;0.90;;;;;;;;;;5094420;28;20020;-54
2023/03/16 05:30:00;;;;;;;5.33;0.63;;;;;;;;;;5095297;28;20023;-53
2023/03/16 05:32:25;;;;;;;6.53;0.60;;;;;;;;;;5094840;28;20038;-48
2023/03/16 05:34:52;;;;;;;2.93;0.70;;;;;;;;;;5093889;28;20461;-48
2023/03/16 05:37:18;;;;;;;4.13;0.90;;;;;;;;;;5094224;28;20090;-50
2023/03/16 05:39:43;;;;;;;7.90;1.10;;;;;;;;;;5094338;28;20020;-51
2023/03/16 05:42:09;;;;;;;6.77;0.57;;;;;;;;;;5092651;28;20023;-56
2023/03/16 05:44:35;;;;;;;7.27;0.87;;;;;;;;;;5092333;28;20521;-55
2023/03/16 05:47:01;;;;;;;7.57;1.00;;;;;;;;;;5093790;28;20020;-50
2023/03/16 05:49:26;;;;;;;4.17;1.10;;;;;;;;;;5094263;28;20151;-52
2023/03/16 05:51:52;;;;;;;3.67;0.70;;;;;;;;;;5093720;28;20016;-50
2023/03/16 05:54:17;;;;;;;9.00;0.90;;;;;;;;;;5091562;28;20113;-48
2023/03/16 05:56:43;;;;;;;2.83;0.90;;;;;;;;;;5092758;28;20060;-53
2023/03/16 05:59:08;;;;;;;5.37;0.90;;;;;;;;;;5093224;28;20152;-49
2023/03/16 06:01:34;;;;;;;4.37;0.57;;;;;;;;;;5091550;28;20111;-48
2023/03/16 06:04:01;;;;;;;15.60;0.87;;;;;;;;;;5091511;28;20028;-49
2023/03/16 06:06:27;;;;;;;6.27;1.07;;;;;;;;;;5092783;28;20013;-49
2023/03/16 06:08:52;;;;;;;6.87;0.90;;;;;;;;;;5091104;28;20381;-50
2023/03/16 06:11:18;;;;;;;2.70;0.80;;;;;;;;;;5091649;28;20020;-50
2023/03/16 06:13:44;;;;;;;5.83;1.10;;;;;;;;;;5096712;28;20016;-49
2023/03/16 06:16:12;;;;;;;2.60;0.47;;;;;;;;;;5096448;28;20051;-50
2023/03/16 06:18:38;;;;;;;2.73;0.80;;;;;;;;;;5096350;28;20027;-49
2023/03/16 06:21:04;;;;;;;4.37;0.70;;;;;;;;;;5096398;28;20008;-49
2023/03/16 06:23:29;;;;;;;6.30;0.80;;;;;;;;;;5095512;28;20020;-49
2023/03/16 06:25:55;;;;;;;4.67;0.70;;;;;;;;;;5095183;28;20464;-49
2023/03/16 06:28:21;;;;;;;5.70;1.27;;;;;;;;;;5096287;28;20161;-48
2023/03/16 06:30:46;;;;;;;10.97;1.70;;;;;;;;;;5096301;28;20016;-49
2023/03/16 06:33:12;;;;;;;2.93;0.60;;;;;;;;;;5095796;28;20023;-49
2023/03/16 06:35:37;;;;;;;2.43;0.70;;;;;;;;;;5094573;28;20360;-49
2023/03/16 06:38:03;;;;;;;5.27;0.80;;;;;;;;;;5094431;28;20027;-50
2023/03/16 06:40:29;;;;;;;3.87;0.83;;;;;;;;;;5093841;28;20024;-51
2023/03/16 06:42:55;;;;;;;7.77;1.23;;;;;;;;;;5094432;28;20361;-51
2023/03/16 06:45:21;;;;;;;5.53;0.80;;;;;;;;;;5095444;28;20103;-50
2023/03/16 06:47:47;;;;;;;4.47;0.77;;;;;;;;;;5095268;28;20423;-59
2023/03/16 06:50:12;;;;;;;3.40;0.98;;;;;;;;;;5093895;28;20479;-50
2023/03/16 06:52:38;;;;;;;5.78;0.70;;;;;;;;;;5094492;28;20016;-51
2023/03/16 06:55:03;;;;;;;6.63;1.90;;;;;;;;;;5093532;28;20012;-50
2023/03/16 06:57:30;;;;;;;6.03;1.17;;;;;;;;;;5094966;28;20077;-51
2023/03/16 06:59:55;;;;;;;5.95;1.00;;;;;;;;;;5094948;28;20585;-50
2023/03/16 07:02:22;;;;;;;7.30;0.90;;;;;;;;;;5093599;28;20358;-50
2023/03/16 07:04:48;;;;;;;9.50;1.63;;;;;;;;;;5093376;28;20031;-49
2023/03/16 07:07:14;;;;;;;9.73;1.85;;;;;;;;;;5094927;28;20098;-51
2023/03/16 07:09:39;;;;;;;6.40;0.95;;;;;;;;;;5095243;28;20499;-49
2023/03/16 07:12:05;;;;;;;5.47;0.93;;;;;;;;;;5097361;28;20071;-50
2023/03/16 07:14:30;;;;;;;7.90;1.15;;;;;;;;;;5096296;28;20079;-52
2023/03/16 07:16:56;;;;;;;7.90;1.17;;;;;;;;;;5093075;28;20024;-51
2023/03/16 07:19:22;;;;;;;17.02;3.30;;;;;;;;;;5095119;28;20078;-50
2023/03/16 07:21:48;;;;;;;5.75;1.20;;;;;;;;;;5095448;28;20020;-52
2023/03/16 07:24:14;;;;;;;12.00;1.83;;;;;;;;;;5094402;28;20024;-50
2023/03/16 07:26:40;;;;;;;6.30;1.55;;;;;;;;;;5093245;28;20016;-51
2023/03/16 07:29:05;;;;;;;5.22;1.10;;;;;;;;;;5094029;28;20492;-50
2023/03/16 07:31:31;;;;;;;4.70;0.85;;;;;;;;;;5092836;28;20050;-53
2023/03/16 07:33:57;;;;;;;6.72;1.55;;;;;;;;;;5093129;28;20020;-50
2023/03/16 07:36:23;;;;;;;7.80;1.35;;;;;;;;;;5094381;28;20085;-51
2023/03/16 07:38:48;;;;;;;11.25;1.10;;;;;;;;;;5094322;28;20020;-51
2023/03/16 07:41:14;;;;;;;8.85;1.33;;;;;;;;;;5094395;28;20016;-52
2023/03/16 07:43:39;;;;;;;19.77;3.00;;;;;;;;;;5094303;28;20016;-50
2023/03/16 07:46:05;;;;;;;10.00;1.25;;;;;;;;;;5092986;28;20023;-51
2023/03/16 07:48:31;;;;;;;12.90;2.33;;;;;;;;;;5093877;28;20028;-52
2023/03/16 07:50:56;;;;;;;10.13;1.30;;;;;;;;;;5093621;28;20024;-52
2023/03/16 07:53:23;;;;;;;14.25;2.08;;;;;;;;;;5092806;28;20079;-52
2023/03/16 07:55:48;;;;;;;19.58;3.08;;;;;;;;;;5093996;28;20032;-51
2023/03/16 07:58:13;;;;;;;12.88;1.45;;;;;;;;;;5092620;28;20035;-51
2023/03/16 08:00:39;;;;;;;14.93;2.47;;;;;;;;;;5092598;28;20024;-51
2023/03/16 08:03:05;;;;;;;7.10;1.40;;;;;;;;;;5092283;28;20063;-57
2023/03/16 08:05:33;;;;;;;10.68;2.15;;;;;;;;;;5093679;28;20084;-50
2023/03/16 08:08:00;;;;;;;20.35;2.10;;;;;;;;;;5092472;28;20511;-51
2023/03/16 08:10:26;;;;;;;22.10;2.63;;;;;;;;;;5093340;28;20468;-52
2023/03/16 08:12:51;;;;;;;9.13;1.80;;;;;;;;;;5093550;28;20016;-51
2023/03/16 08:15:17;;;;;;;8.10;1.58;;;;;;;;;;5093885;28;20024;-52
2023/03/16 08:17:42;;;;;;;13.23;2.03;;;;;;;;;;5092569;28;20024;-51
2023/03/16 08:20:11;;;;;;;10.93;2.15;;;;;;;;;;5094925;28;20027;-53
2023/03/16 08:22:37;;;;;;;8.70;2.38;;;;;;;;;;5093470;28;20020;-53
2023/03/16 08:25:04;;;;;;;10.57;1.50;;;;;;;;;;5092541;28;20077;-52
2023/03/16 08:27:30;;;;;;;26.38;3.17;;;;;;;;;;5091289;28;20028;-52
2023/03/16 08:29:56;;;;;;;15.55;2.33;;;;;;;;;;5092779;28;20024;-52
2023/03/16 08:32:21;;;;;;;4.57;1.60;;;;;;;;;;5092920;28;20516;-57
2023/03/16 08:34:47;;;;;;;29.88;3.10;;;;;;;;;;5092079;28;20009;-51
2023/03/16 08:37:13;;;;;;;19.42;2.53;;;;;;;;;;5092492;28;20024;-52
2023/03/16 08:39:42;;;;;;;14.10;2.08;;;;;;;;;;5091498;28;20024;-52
2023/03/16 08:42:08;;;;;;;9.70;1.92;;;;;;;;;;5091372;28;20036;-52
2023/03/16 08:44:35;;;;;;;9.68;1.90;;;;;;;;;;5092231;28;20375;-53
2023/03/16 08:47:01;;;;;;;11.25;2.10;;;;;;;;;;5092245;28;20047;-53
2023/03/16 08:49:27;;;;;;;19.25;2.58;;;;;;;;;;5090819;28;20119;-52
2023/03/16 08:51:53;;;;;;;15.05;3.35;;;;;;;;;;5091908;28;20027;-53
2023/03/16 08:54:18;;;;;;;25.05;2.33;;;;;;;;;;5092207;28;20016;-51
2023/03/16 08:56:44;;;;;;;13.95;2.47;;;;;;;;;;5092097;28;20127;-51
2023/03/16 08:59:09;;;;;;;10.80;1.70;;;;;;;;;;5090997;28;20032;-53
2023/03/16 09:01:35;;;;;;;37.53;3.90;;;;;;;;;;5090617;28;20027;-53
2023/03/16 09:04:02;;;;;;;12.55;2.03;;;;;;;;;;5091862;28;20605;-53
2023/03/16 09:06:27;;;;;;;19.83;2.28;;;;;;;;;;5092141;28;20023;-51
2023/03/16 09:08:54;;;;;;;17.25;2.78;;;;;;;;;;5092219;28;20043;-52
2023/03/16 09:11:21;;;;;;;11.95;2.83;;;;;;;;;;5091883;28;20019;-53
2023/03/16 09:13:47;;;;;;;18.65;1.92;;;;;;;;;;5092205;28;20027;-54
2023/03/16 09:16:14;;;;;;;10.02;1.58;;;;;;;;;;5090673;28;20019;-52
2023/03/16 09:18:40;;;;;;;10.63;2.03;;;;;;;;;;5090811;28;20019;-53
2023/03/16 09:21:06;;;;;;;13.45;2.65;;;;;;;;;;5092180;28;20024;-53
2023/03/16 09:23:33;;;;;;;4.57;1.58;;;;;;;;;;5092890;28;20020;-55
2023/03/16 09:26:02;;;;;;;8.93;2.17;;;;;;;;;;5091635;28;20031;-52
2023/03/16 09:28:28;;;;;;;13.55;2.47;;;;;;;;;;5093210;28;20047;-53
2023/03/16 09:30:55;;;;;;;19.58;3.65;;;;;;;;;;5090758;28;20024;-53
2023/03/16 09:33:21;;;;;;;12.82;3.05;;;;;;;;;;5091715;28;20122;-53
2023/03/16 09:35:47;;;;;;;18.95;5.80;;;;;;;;;;5091717;28;20103;-53
2023/03/16 09:38:12;;;;;;;11.77;3.00;;;;;;;;;;5090869;28;20047;-53
2023/03/16 09:40:38;;;;;;;15.43;2.45;;;;;;;;;;5090974;28;20023;-54
2023/03/16 09:43:17;;;;;;;9.95;2.15;;;;;;;;;;5090381;28;20132;-53
2023/03/16 09:46:00;;;;;;;10.48;1.92;;;;;;;;;;5090573;28;20024;-54
2023/03/16 09:48:28;;;;;;;17.27;1.80;;;;;;;;;;5095699;28;20077;-53
2023/03/16 09:50:55;;;;;;;11.27;2.90;;;;;;;;;;5095899;28;20020;-53
2023/03/16 09:53:20;;;;;;;15.05;2.30;;;;;;;;;;5095778;28;20496;-53
2023/03/16 09:55:47;;;;;;;14.10;2.20;;;;;;;;;;5095928;28;20008;-53
2023/03/16 09:58:17;;;;;;;21.70;2.83;;;;;;;;;;5095558;28;20101;-53
2023/03/16 10:00:49;;;;;;;20.05;2.38;;;;;;;;;;5094214;28;20144;-53
2023/03/16 10:03:17;;;;;;;8.25;1.83;;;;;;;;;;5094942;28;20055;-53
2023/03/16 10:05:43;;;;;;;12.02;2.45;;;;;;;;;;5096084;28;20020;-52
2023/03/16 10:08:12;;;;;;;9.80;2.17;;;;;;;;;;5094215;28;20034;-53
2023/03/16 10:10:41;;;;;;;6.90;2.75;;;;;;;;;;5094300;28;20508;-53
2023/03/16 10:13:14;;;;;;;13.07;3.78;;;;;;;;;;5094694;28;20074;-53
2023/03/16 10:15:40;;;;;;;15.88;2.83;;;;;;;;;;5094141;28;20048;-53
2023/03/16 10:18:10;;;;;;;20.92;2.50;;;;;;;;;;5095027;28;20121;-53
2023/03/16 10:20:36;;;;;;;14.02;2.60;;;;;;;;;;5093739;28;20480;-52
2023/03/16 10:23:16;;;;;;;14.30;3.17;;;;;;;;;;5094740;28;20020;-52
2023/03/16 10:25:45;;;;;;;13.55;3.03;;;;;;;;;;5094460;28;20016;-53
2023/03/16 10:28:14;;;;;;;9.18;2.08;;;;;;;;;;5094557;28;20032;-53
2023/03/16 10:30:41;;;;;;;21.25;2.47;;;;;;;;;;5094674;28;20028;-53
2023/03/16 10:33:25;;;;;;;16.13;2.22;;;;;;;;;;5093093;28;20026;-52
2023/03/16 10:35:56;;;;;;;28.75;3.45;;;;;;;;;;5094430;28;20030;-52
2023/03/16 10:38:45;;;;;;;13.15;2.13;;;;;;;;;;5094158;28;20027;-53
2023/03/16 10:41:15;;;;;;;8.50;1.60;;;;;;;;;;5093937;28;20326;-52
2023/03/16 10:43:40;;;;;;;8.93;1.98;;;;;;;;;;5092694;28;20050;-54
2023/03/16 10:46:08;;;;;;;9.48;1.90;;;;;;;;;;5094529;28;20056;-51
2023/03/16 10:48:34;;;;;;;14.75;2.28;;;;;;;;;;5094230;28;20504;-53
2023/03/16 10:51:02;;;;;;;13.32;2.53;;;;;;;;;;5092790;28;20075;-53
2023/03/16 10:53:29;;;;;;;17.90;3.40;;;;;;;;;;5094437;28;20024;-51
2023/03/16 10:55:59;;;;;;;16.90;2.70;;;;;;;;;;5093754;28;20019;-53
2023/03/16 10:58:34;;;;;;;13.02;3.88;;;;;;;;;;5092954;28;20024;-52
2023/03/16 11:01:00;;;;;;;17.13;2.33;;;;;;;;;;5093562;28;20024;-53
2023/03/16 11:03:33;;;;;;;18.98;2.88;;;;;;;;;;5094131;28;20023;-53
2023/03/16 11:06:03;;;;;;;13.40;2.75;;;;;;;;;;5094325;28;20027;-53
2023/03/16 11:08:34;;;;;;;11.25;2.30;;;;;;;;;;5093965;28;20052;-53
2023/03/16 11:11:01;;;;;;;8.65;2.42;;;;;;;;;;5093606;28;20016;-52
2023/03/16 11:13:37;;;;;;;13.30;2.13;;;;;;;;;;5092492;28;20020;-53
2023/03/16 11:16:05;;;;;;;15.40;2.53;;;;;;;;;;5094419;28;20024;-51
2023/03/16 11:18:35;;;;;;;11.02;2.50;;;;;;;;;;5091420;28;20024;-52
2023/03/16 11:21:05;;;;;;;19.23;2.08;;;;;;;;;;5092249;28;20023;-53
2023/03/16 11:23:33;;;;;;;10.63;1.98;;;;;;;;;;5093638;28;20012;-52
2023/03/16 11:26:01;;;;;;;8.60;1.92;;;;;;;;;;5092626;28;20495;-52
2023/03/16 11:28:35;;;;;;;7.60;1.80;;;;;;;;;;5092690;28;20039;-51
2023/03/16 11:31:03;;;;;;;7.53;2.60;;;;;;;;;;5092368;28;20073;-52
2023/03/16 11:33:34;;;;;;;14.07;2.00;;;;;;;;;;5093097;28;20073;-52
2023/03/16 11:36:19;;;;;;;10.50;1.90;;;;;;;;;;5095350;28;20079;-51
2023/03/16 11:38:49;;;;;;;5.18;1.52;;;;;;;;;;5096172;28;20023;-53
2023/03/16 11:41:22;;;;;;;7.55;1.88;;;;;;;;;;5093388;28;20119;-52
2023/03/16 11:43:54;;;;;;;9.52;2.00;;;;;;;;;;5092646;28;20052;-51
2023/03/16 11:46:28;;;;;;;9.38;2.30;;;;;;;;;;5093729;28;20360;-52
2023/03/16 11:49:12;;;;;;;7.85;1.90;;;;;;;;;;5093798;28;20049;-50
2023/03/16 11:52:07;;;;;;;10.75;1.85;;;;;;;;;;5093447;28;20032;-51
2023/03/16 11:54:40;;;;;;;9.80;2.15;;;;;;;;;;5022078;28;20034;-51
2023/03/16 11:57:08;;;;;;;9.25;1.80;;;;;;;;;;5092396;28;20040;-61
2023/03/16 11:59:52;;;;;;;7.78;1.73;;;;;;;;;;5094385;28;20027;-52
2023/03/16 12:02:18;;;;;;;8.57;2.00;;;;;;;;;;5110110;28;20024;-59
2023/03/16 12:05:11;;;;;;;4.75;1.60;;;;;;;;;;5092969;28;20388;-52
2023/03/16 12:08:03;;;;;;;5.00;1.17;;;;;;;;;;5094025;28;20024;-52
2023/03/16 12:10:35;;;;;;;5.13;1.40;;;;;;;;;;5092207;28;20539;-52
2023/03/16 12:13:00;;;;;;;10.38;1.63;;;;;;;;;;5093883;28;20078;-50
2023/03/16 12:15:43;;;;;;;16.27;2.28;;;;;;;;;;5094085;28;20020;-50
2023/03/16 12:18:16;;;;;;;8.65;1.88;;;;;;;;;;5092491;28;20016;-50
2023/03/16 12:20:50;;;;;;;12.23;1.50;;;;;;;;;;5093930;28;20065;-53
2023/03/16 12:23:28;;;;;;;16.52;3.60;;;;;;;;;;5094413;28;20032;-51
2023/03/16 12:25:56;;;;;;;6.10;1.80;;;;;;;;;;5094442;28;20028;-50
2023/03/16 12:28:23;;;;;;;13.68;2.03;;;;;;;;;;5094377;28;20068;-51
2023/03/16 12:30:52;;;;;;;4.30;1.60;;;;;;;;;;5094300;28;20431;-54
2023/03/16 12:33:25;;;;;;;19.70;2.03;;;;;;;;;;5091715;28;20081;-50
2023/03/16 12:35:55;;;;;;;7.82;1.90;;;;;;;;;;5093687;28;20099;-51
2023/03/16 12:38:41;;;;;;;12.63;1.35;;;;;;;;;;5093662;28;20024;-50
2023/03/16 12:41:15;;;;;;;19.77;1.65;;;;;;;;;;5082434;28;20028;-53
2023/03/16 12:43:41;;;;;;;6.10;1.83;;;;;;;;;;5093326;28;20477;-58
2023/03/16 12:46:12;;;;;;;9.85;1.63;;;;;;;;;;5091636;28;20024;-50
2023/03/16 12:48:56;;;;;;;9.55;1.30;;;;;;;;;;5093024;28;20032;-51
2023/03/16 12:51:31;;;;;;;5.82;2.03;;;;;;;;;;5094085;28;20032;-50
2023/03/16 12:53:58;;;;;;;5.03;2.38;;;;;;;;;;5093464;28;20023;-52
2023/03/16 12:56:42;;;;;;;10.18;1.73;;;;;;;;;;5092719;28;20040;-51
2023/03/16 12:59:15;;;;;;;8.05;2.00;;;;;;;;;;5091722;28;20031;-51
2023/03/16 13:01:42;;;;;;;9.45;1.65;;;;;;;;;;5092581;28;20028;-51
2023/03/16 13:04:11;;;;;;;10.40;1.88;;;;;;;;;;5092451;28;20022;-51
2023/03/16 13:06:41;;;;;;;3.58;1.48;;;;;;;;;;5091396;28;20052;-49
2023/03/16 13:09:07;;;;;;;12.10;1.90;;;;;;;;;;5091532;28;20042;-51
2023/03/16 13:11:46;;;;;;;6.85;1.50;;;;;;;;;;5092904;28;20105;-49
2023/03/16 13:14:35;;;;;;;6.50;1.55;;;;;;;;;;5092987;28;20496;-50
2023/03/16 13:17:05;;;;;;;13.30;1.90;;;;;;;;;;5080140;28;20035;-49
2023/03/16 13:19:36;;;;;;;7.13;1.55;;;;;;;;;;5092667;28;20384;-50
2023/03/16 13:22:25;;;;;;;6.10;1.20;;;;;;;;;;5091172;28;20048;-50
2023/03/16 13:24:53;;;;;;;7.82;1.98;;;;;;;;;;5084471;28;20066;-51
2023/03/16 13:27:22;;;;;;;9.95;1.83;;;;;;;;;;5092592;28;20035;-49
2023/03/16 13:29:54;;;;;;;11.27;1.48;;;;;;;;;;5093075;28;20467;-50
2023/03/16 13:32:20;;;;;;;10.15;1.50;;;;;;;;;;5093009;28;20024;-51
2023/03/16 13:34:48;;;;;;;7.25;1.77;;;;;;;;;;5092735;28;20024;-51
2023/03/16 13:37:16;;;;;;;13.75;1.60;;;;;;;;;;5090808;28;20024;-52
2023/03/16 13:39:41;;;;;;;9.35;1.50;;;;;;;;;;5092835;28;20020;-49
2023/03/16 13:42:15;;;;;;;11.95;1.58;;;;;;;;;;5091781;28;20157;-50
2023/03/16 13:44:41;;;;;;;6.72;1.73;;;;;;;;;;5092488;28;20028;-50
2023/03/16 13:47:07;;;;;;;5.38;1.52;;;;;;;;;;5092169;28;20475;-59
2023/03/16 13:49:33;;;;;;;6.82;1.52;;;;;;;;;;5092380;28;20020;-54
2023/03/16 13:52:01;;;;;;;7.55;1.40;;;;;;;;;;5090762;28;20055;-55
2023/03/16 13:54:28;;;;;;;6.15;2.35;;;;;;;;;;5091446;28;20016;-50
2023/03/16 13:57:06;;;;;;;7.75;1.40;;;;;;;;;;5093790;28;20050;-52
2023/03/16 13:59:31;;;;;;;7.38;1.80;;;;;;;;;;5093101;28;20476;-51
2023/03/16 14:02:00;;;;;;;9.27;1.33;;;;;;;;;;5092564;28;20023;-51
2023/03/16 14:04:30;;;;;;;5.30;1.42;;;;;;;;;;5092312;28;20460;-51
2023/03/16 14:06:56;;;;;;;10.07;3.30;;;;;;;;;;5090673;28;20020;-50
2023/03/16 14:09:24;;;;;;;8.48;2.20;;;;;;;;;;5092453;28;20031;-52
2023/03/16 14:11:50;;;;;;;5.72;0.93;;;;;;;;;;5092136;28;20018;-50
2023/03/16 14:14:20;;;;;;;4.55;1.02;;;;;;;;;;5090914;28;20440;-50
2023/03/16 14:16:45;;;;;;;5.95;1.80;;;;;;;;;;5091456;28;20016;-51
2023/03/16 14:19:20;;;;;;;6.97;1.27;;;;;;;;;;5091536;28;20027;-50
2023/03/16 14:21:46;;;;;;;;;;;;;;;;;;5091504;28;20024;-49
2023/03/16 14:24:32;;;;;;;6.20;1.10;;;;;;;;;;5090853;28;20445;-49
2023/03/16 14:27:07;;;;;;;4.70;1.27;;;;;;;;;;5091525;28;20020;-50
2023/03/16 14:29:33;;;;;;;7.30;1.58;;;;;;;;;;5091795;28;20057;-60
2023/03/16 14:31:59;;;;;;;3.25;0.98;;;;;;;;;;5073830;28;20024;-50
2023/03/16 14:34:28;;;;;;;10.30;1.50;;;;;;;;;;5092890;28;20020;-49
2023/03/16 14:37:03;;;;;;;10.20;1.50;;;;;;;;;;5093868;28;20016;-54
2023/03/16 14:39:30;;;;;;;4.25;1.10;;;;;;;;;;5094038;28;20388;-51
2023/03/16 14:41:57;;;;;;;9.95;1.35;;;;;;;;;;5095855;28;20392;-51
2023/03/16 14:44:29;;;;;;;4.93;1.05;;;;;;;;;;5094474;28;20031;-50
2023/03/16 14:46:56;;;;;;;2.67;1.17;;;;;;;;;;5093905;28;20024;-51